Search results

powered by google + Custom search

Predator Race Winter Weekend - Predator Brutal

cross
DATE :28.1.2018 PLACE  :Biatlonový areál Eduard

Selected athletes overview

Selected athletes will be displayed here. Currently nothing selected.
EXPORT :   XLS
Results -
Loading...
Rank Bib Fullname Year Club Category Time Gap
DISPLAY ON PAGE
Rank Bib Fullname Year Club Category Time Gap
1 1562 athlete detail HORTOBÁGYIOVÁ Eszter 1994 Elite Team Ocra Slovakia 1. /  Ženy 21 -30 let 1:17:17.2 0:00:00.0
2 1065 athlete detail DANI Michaela 1992 SVVAT 2. /  Ženy 21 -30 let 1:29:07.2 0:11:50.0
3 1487 athlete detail VESELÁ Petra 1986 --- 1. /  Ženy 31 -40 let 1:31:10.1 0:13:52.9
4 160 athlete detail VOJTÍŠKOVÁ Lucie 1985 --- 2. /  Ženy 31 -40 let 1:33:56.6 0:16:39.4
5 1010 athlete detail HÁJKOVÁ Daniela 1980 --- 3. /  Ženy 31 -40 let 1:34:04.7 0:16:47.5
6 136 athlete detail BABUŠKOVÁ Stanislava 1974 --- 1. /  Ženy 41 -50 let 1:34:06.2 0:16:49.0
7 1494 athlete detail MIZON Ruby 1997 Outdoor CREW 3. /  Ženy 21 -30 let 1:34:27.8 0:17:10.6
8 33 athlete detail FIALOVÁ Lenka 1989 --- 4. /  Ženy 21 -30 let 1:34:36.1 0:17:18.9
9 1078 athlete detail KÖNIGOVÁ Lucie 1986 Bootcamp Team 4. /  Ženy 31 -40 let 1:34:50.8 0:17:33.6
10 1593 athlete detail BRINKMANN Sabrina 1992 --- 5. /  Ženy 21 -30 let 1:34:58.4 0:17:41.2
11 1341 athlete detail NOVAKOVA Gabriela 1978 High Intensity Trainings Prague 5. /  Ženy 31 -40 let 1:35:01.0 0:17:43.8
12 1335 athlete detail SVECOVA Lucia 1984 High Intensity Trainings Prague 6. /  Ženy 31 -40 let 1:35:02.5 0:17:45.3
13 1084 athlete detail ŠAŠKOVÁ Zuzana 1983 Gladiators 7. /  Ženy 31 -40 let 1:35:02.6 0:17:45.4
14 1549 athlete detail ZIMMERMANOVÁ Lenka 1975 Predator Workout Ústí nad Labem 2. /  Ženy 41 -50 let 1:36:21.4 0:19:04.2
15 1557 athlete detail BIOLIK Nicole 1989 MIT Tough Team Germany II. 6. /  Ženy 21 -30 let 1:37:03.6 0:19:46.4
16 1569 athlete detail KUČEROVÁ Klára 1993 Spartan Gym 7. /  Ženy 21 -30 let 1:37:27.3 0:20:10.1
17 1381 athlete detail KLÁNOVÁ Michaela 1991 TABATA ŽATEC 8. /  Ženy 21 -30 let 1:38:54.6 0:21:37.4
18 1484 athlete detail KOLLEROVÁ Eliška 1995 --- 9. /  Ženy 21 -30 let 1:39:33.7 0:22:16.5
19 1232 athlete detail ŽIŽKOVÁ Kateřina 1994 Outdoor CREW 10. /  Ženy 21 -30 let 1:39:47.8 0:22:30.6
20 1083 athlete detail SUKOVATÁ Klára 1991 Gladiators 11. /  Ženy 21 -30 let 1:40:25.2 0:23:08.0
21 35 athlete detail FEJTOVÁ Zuzana 1983 --- 8. /  Ženy 31 -40 let 1:40:51.4 0:23:34.2
22 1564 athlete detail MÁLKOVÁ Kristína 1991 Spartan Gym 12. /  Ženy 21 -30 let 1:41:15.0 0:23:57.8
23 1476 athlete detail GORI Katarina 1984 CELTIC WARRIOR 9. /  Ženy 31 -40 let 1:42:18.9 0:25:01.7
24 140 athlete detail HAJOSTEKOVA Simona 1994 Team OCRA Slovakia 13. /  Ženy 21 -30 let 1:42:29.6 0:25:12.4
25 1040 athlete detail JEŘÁBKOVÁ Petra 1987 MůjGym 10. /  Ženy 31 -40 let 1:44:10.1 0:26:52.9
26 1300 athlete detail ŠUKOVÁ Martina 1998 SRTG Čelákovice 1. /  Ženy 15 - 20 let 1:44:50.3 0:27:33.1
27 61 athlete detail ŠIBOROVÁ Kristýna 1980 Predator Workout Kladno 11. /  Ženy 31 -40 let 1:45:03.3 0:27:46.1
28 1126 athlete detail SUŠÁNKOVÁ Klára 1997 Cinema City Team Elite 14. /  Ženy 21 -30 let 1:45:35.6 0:28:18.4
29 104 athlete detail VACKOVÁ Tereza 1991 --- 15. /  Ženy 21 -30 let 1:46:39.7 0:29:22.5
30 1588 athlete detail ŠTĚPÁNKOVÁ Šárka 2000 Spartan Gym 2. /  Ženy 15 - 20 let 1:46:57.8 0:29:40.6
31 1568 athlete detail MILUŠKOVÁ Tereza 1984 Spartan Gym 12. /  Ženy 31 -40 let 1:46:57.9 0:29:40.7
32 1139 athlete detail CIGLEROVÁ Barbora 1976 --- 3. /  Ženy 41 -50 let 1:47:34.9 0:30:17.7
33 1101 athlete detail PORTELLOVÁ Karolina 1984 --- 13. /  Ženy 31 -40 let 1:47:46.7 0:30:29.5
34 36 athlete detail KUŠNÍROVÁ Marie 1989 --- 16. /  Ženy 21 -30 let 1:48:04.7 0:30:47.5
35 1293 athlete detail FOJTŮ Nina 1979 --- 14. /  Ženy 31 -40 let 1:48:06.1 0:30:48.9
36 1272 athlete detail LENOCHOVÁ Magda 1981 SRTG Čelákovice 15. /  Ženy 31 -40 let 1:48:28.0 0:31:10.8
37 1345 athlete detail LONKOVÁ Magdalena 2000 Scorpion Extreme Team 3. /  Ženy 15 - 20 let 1:48:34.7 0:31:17.5
38 1067 athlete detail PĚČKOVÁ Zdeňka 1976 --- 4. /  Ženy 41 -50 let 1:48:52.2 0:31:35.0
39 1027 athlete detail RUDKOVÁ Kristýna 1997 MůjGym 17. /  Ženy 21 -30 let 1:48:53.4 0:31:36.2
40 1515 athlete detail DONÁTOVÁ Hanka 1978 --- 16. /  Ženy 31 -40 let 1:49:30.6 0:32:13.4
41 1296 athlete detail VLACHOVÁ Veronika 1991 --- 18. /  Ženy 21 -30 let 1:50:22.8 0:33:05.6
42 1599 athlete detail ŠMÍDOVÁ Petra 1988 Gladiators 19. /  Ženy 21 -30 let 1:50:25.0 0:33:07.8
43 1586 athlete detail ŠČUDLOVÁ Pavla 1990 Spartan Gym 20. /  Ženy 21 -30 let 1:50:32.7 0:33:15.5
44 52 athlete detail HLADÍKOVÁ Martina 1990 Kabrňáci 21. /  Ženy 21 -30 let 1:50:51.9 0:33:34.7
45 54 athlete detail KULVAJTOVÁ Markéta 1986 Kabrňáci 17. /  Ženy 31 -40 let 1:50:53.0 0:33:35.8
46 1297 athlete detail JIRÁSKOVÁ Lucie 1989 SRTG Čelákovice 22. /  Ženy 21 -30 let 1:50:53.4 0:33:36.2
47 1316 athlete detail JANČOVÁ Jesika 1996 --- 23. /  Ženy 21 -30 let 1:51:58.0 0:34:40.8
48 152 athlete detail KYZEKOVÁ Dominika 1988 Team OCRA Slovakia 24. /  Ženy 21 -30 let 1:52:08.0 0:34:50.8
49 139 athlete detail HOUŠKOVÁ Šárka 1991 --- 25. /  Ženy 21 -30 let 1:52:23.3 0:35:06.1
50 1152 athlete detail DRÁBKOVÁ Veronika 1996 SRTG ŠUMPERK 26. /  Ženy 21 -30 let 1:53:06.6 0:35:49.4
51 1433 athlete detail VOLTROVÁ Zuzana 1980 Bootcamp Team 18. /  Ženy 31 -40 let 1:53:13.4 0:35:56.2
52 1432 athlete detail TITĚROVÁ Barbora 2001 Bootcamp Team 4. /  Ženy 15 - 20 let 1:53:42.1 0:36:24.9
53 1185 athlete detail ZEMANOVÁ Dagmar 1975 --- 5. /  Ženy 41 -50 let 1:54:12.0 0:36:54.8
54 38 athlete detail GÁLOVÁ Dana 1990 Antibiotik power 27. /  Ženy 21 -30 let 1:54:24.2 0:37:07.0
55 1203 athlete detail MÍŠKOVÁ Tereza 1993 SRTG Olomouc 28. /  Ženy 21 -30 let 1:54:26.6 0:37:09.4
56 1590 athlete detail ČERMÁKOVÁ Alena 1985 Spartan Gym 19. /  Ženy 31 -40 let 1:54:40.2 0:37:23.0
57 1521 athlete detail KUŽELÍKOVÁ Zuzana 1990 Vesmírné Šlehačky 29. /  Ženy 21 -30 let 1:54:41.4 0:37:24.2
58 1566 athlete detail PAVLÍČKOVÁ Šárka 1990 Spartan Gym 30. /  Ženy 21 -30 let 1:55:24.3 0:38:07.1
59 1072 athlete detail PŘIBYLOVÁ Alexandra 1984 SVVAT 20. /  Ženy 31 -40 let 1:55:59.4 0:38:42.2
60 1306 athlete detail JURNÍKOVÁ Petra 1992 --- 31. /  Ženy 21 -30 let 1:56:02.9 0:38:45.7
61 1435 athlete detail VODIČKOVÁ Pavla 1968 Bootcamp Team 6. /  Ženy 41 -50 let 1:56:06.6 0:38:49.4
62 1107 athlete detail MAŠATOVÁ Ingrid 1971 Rokytka 7. /  Ženy 41 -50 let 1:56:41.2 0:39:24.0
63 1428 athlete detail RASLOVÁ Marie 1982 Bootcamp Team 21. /  Ženy 31 -40 let 1:56:48.8 0:39:31.6
64 1212 athlete detail STEHLÍKOVÁ Nikola 1995 SRTG Olomouc 32. /  Ženy 21 -30 let 1:57:45.3 0:40:28.1
65 1407 athlete detail NESIBOVÁ Iva 1996 Diversity Beasts 33. /  Ženy 21 -30 let 1:57:46.2 0:40:29.0
66 1267 athlete detail ŠVESTKOVÁ Sabina 1998 SRTG Čelákovice 5. /  Ženy 15 - 20 let 1:58:28.0 0:41:10.8
67 1320 athlete detail ŠOPÍKOVÁ Ivana 1995 Bootcamp Team 34. /  Ženy 21 -30 let 1:58:40.5 0:41:23.3
68 1291 athlete detail ANDRŠOVÁ Judita 1991 Most 35. /  Ženy 21 -30 let 1:58:48.0 0:41:30.8
69 1173 athlete detail POUROVÁ Kateřina 1995 Vesmírné Šlehačky 36. /  Ženy 21 -30 let 1:59:03.3 0:41:46.1
70 142 athlete detail LANGEROVÁ Lenka 1995 --- 37. /  Ženy 21 -30 let 2:00:07.0 0:42:49.8
71 166 athlete detail NĚMCOVÁ Martina 1981 SRTG Čelákovice 22. /  Ženy 31 -40 let 2:00:09.6 0:42:52.4
72 1033 athlete detail POKORNÁ Linda 1985 MůjGym 23. /  Ženy 31 -40 let 2:00:17.0 0:42:59.8
73 29 athlete detail HAVLOVÁ Tereza 1983 --- 24. /  Ženy 31 -40 let 2:00:37.9 0:43:20.7
74 1136 athlete detail RAMPÍROVÁ Petra 1983 Stars of Olympia 25. /  Ženy 31 -40 let 2:00:42.2 0:43:25.0
75 1189 athlete detail ORTOVÁ Nikola 1993 --- 38. /  Ženy 21 -30 let 2:01:05.7 0:43:48.5
76 1358 athlete detail MANNOVÁ Elena 1984 CF Tábor 26. /  Ženy 31 -40 let 2:01:27.9 0:44:10.7
77 1103 athlete detail MARESOVA Eva 1982 --- 27. /  Ženy 31 -40 let 2:01:31.3 0:44:14.1
78 1249 athlete detail CHUDÁ Veronika 1976 SRTG Čelákovice 8. /  Ženy 41 -50 let 2:01:35.7 0:44:18.5
79 1456 athlete detail SRNSKA Kateřina 1989 SRTG Hradec Králové 39. /  Ženy 21 -30 let 2:02:22.6 0:45:05.4
80 1246 athlete detail DVOŘÁKOVÁ Veronika 1991 SRTG Čelákovice 40. /  Ženy 21 -30 let 2:02:48.5 0:45:31.3
81 1028 athlete detail JŮNOVÁ Michaela 1983 MůjGym 28. /  Ženy 31 -40 let 2:03:42.6 0:46:25.4
82 1595 athlete detail KONRÁDOVÁ Jitka 1976 --- 9. /  Ženy 41 -50 let 2:03:47.5 0:46:30.3
83 1114 athlete detail ŘEHÁKOVÁ Nikola 1993 Slovácko 41. /  Ženy 21 -30 let 2:04:10.8 0:46:53.6
84 1178 athlete detail ŘEŽÁBKOVÁ Monika 1994 Vesmírné Šlehačky 42. /  Ženy 21 -30 let 2:04:14.9 0:46:57.7
85 1089 athlete detail PLEVÁKOVÁ Majdule 1991 Gladiators 43. /  Ženy 21 -30 let 2:05:24.2 0:48:07.0
86 1340 athlete detail RYZNAROVA Paja 1990 High Intensity Trainings Prague 44. /  Ženy 21 -30 let 2:05:29.9 0:48:12.7
87 1334 athlete detail SAMKOVA Barbora 1988 High Intensity Trainings Prague 45. /  Ženy 21 -30 let 2:05:30.6 0:48:13.4
88 1030 athlete detail ČERMÁKOVÁ Veronika 1987 MůjGym 29. /  Ženy 31 -40 let 2:05:30.6 0:48:13.4
89 1339 athlete detail SRPOVA Veronika 1986 High Intensity Trainings Prague 30. /  Ženy 31 -40 let 2:05:38.4 0:48:21.2
90 1310 athlete detail HUDZIKOVÁ Marika 1971 Dolnohbitští Dementi 10. /  Ženy 41 -50 let 2:06:40.6 0:49:23.4
91 1258 athlete detail VLCKOVA Ivana 1993 SRTG Čelákovice 46. /  Ženy 21 -30 let 2:07:02.9 0:49:45.7
92 126 athlete detail KARASOVÁ Kamila 1978 --- 31. /  Ženy 31 -40 let 2:07:14.3 0:49:57.1
93 120 athlete detail DIVIŠOVA Monika 1983 --- 32. /  Ženy 31 -40 let 2:07:14.4 0:49:57.2
94 1519 athlete detail REIHER Nicole 1989 --- 47. /  Ženy 21 -30 let 2:07:24.4 0:50:07.2
95 1576 athlete detail ZAVŘELOVÁ Olga 1972 Spartan Gym 11. /  Ženy 41 -50 let 2:07:28.3 0:50:11.1
96 1241 athlete detail ULRYCHOVÁ Michaela 1987 SRTG Čelákovice 33. /  Ženy 31 -40 let 2:07:35.1 0:50:17.9
97 1066 athlete detail GRIEßBACH Fabian 1986 --- 34. /  Ženy 31 -40 let 2:07:39.3 0:50:22.1
98 1577 athlete detail ŠTĚPÁNKOVÁ Veronika 1973 Spartan Gym 12. /  Ženy 41 -50 let 2:08:39.0 0:51:21.8
99 1148 athlete detail ŽVÁČKOVÁ Anna 1994 SRTG ŠUMPERK 48. /  Ženy 21 -30 let 2:09:02.4 0:51:45.2
100 1062 athlete detail RAITROVÁ Hana 1986 --- 35. /  Ženy 31 -40 let 2:09:31.4 0:52:14.2

Don't you find yourself in results list? Contact timekeeper's team.